createdAt,value
2023-04-25T00:01:58.831Z,12.67
2023-04-25T00:04:26.956Z,12.71
2023-04-25T00:06:55.372Z,12.75
2023-04-25T00:09:22.298Z,12.61
2023-04-25T00:11:49.507Z,12.59
2023-04-25T00:14:17.995Z,12.52
2023-04-25T00:16:45.231Z,12.56
2023-04-25T00:19:12.571Z,12.65
2023-04-25T00:21:41.734Z,12.60
2023-04-25T00:24:08.929Z,12.39
2023-04-25T00:26:37.058Z,12.29
2023-04-25T00:29:04.071Z,12.33
2023-04-25T00:31:31.369Z,12.44
2023-04-25T00:33:58.295Z,12.53
2023-04-25T00:36:25.162Z,12.57
2023-04-25T00:38:51.956Z,12.49
2023-04-25T00:41:20.001Z,12.37
2023-04-25T00:43:47.400Z,12.28
2023-04-25T00:46:14.357Z,12.39
2023-04-25T00:48:41.234Z,12.46
2023-04-25T00:51:08.180Z,12.58
2023-04-25T00:53:35.178Z,12.55
2023-04-25T00:56:01.957Z,12.56
2023-04-25T00:58:28.903Z,12.52
2023-04-25T01:00:57.230Z,12.40
2023-04-25T01:03:24.278Z,12.48
2023-04-25T01:05:51.645Z,12.51
2023-04-25T01:08:18.403Z,12.51
2023-04-25T01:10:45.276Z,12.51
2023-04-25T01:13:12.226Z,12.55
2023-04-25T01:15:39.197Z,12.51
2023-04-25T01:18:07.494Z,12.52
2023-04-25T01:20:35.257Z,12.50
2023-04-25T01:23:04.138Z,12.47
2023-04-25T01:25:34.012Z,12.44
2023-04-25T01:28:01.265Z,12.43
2023-04-25T01:30:28.521Z,12.40
2023-04-25T01:32:57.600Z,12.39
2023-04-25T01:35:27.902Z,12.22
2023-04-25T01:37:54.912Z,12.28
2023-04-25T01:40:22.445Z,12.21
2023-04-25T01:42:49.777Z,12.17
2023-04-25T01:45:16.750Z,12.09
2023-04-25T01:47:44.916Z,12.26
2023-04-25T01:50:12.538Z,12.19
2023-04-25T01:52:39.664Z,12.23
2023-04-25T01:55:07.372Z,12.16
2023-04-25T01:57:34.374Z,12.11
2023-04-25T02:00:04.219Z,12.09
2023-04-25T02:02:31.203Z,12.09
2023-04-25T02:04:58.144Z,12.12
2023-04-25T02:07:25.041Z,12.14
2023-04-25T02:09:51.957Z,12.01
2023-04-25T02:12:18.753Z,11.99
2023-04-25T02:14:45.635Z,12.08
2023-04-25T02:17:13.849Z,12.05
2023-04-25T02:19:40.940Z,12.09
2023-04-25T02:22:07.895Z,12.05
2023-04-25T02:24:35.908Z,12.06
2023-04-25T02:27:02.917Z,12.05
2023-04-25T02:29:30.704Z,12.07
2023-04-25T02:31:57.641Z,11.95
2023-04-25T02:34:24.624Z,12.00
2023-04-25T02:36:54.431Z,11.99
2023-04-25T02:39:23.366Z,12.03
2023-04-25T02:41:50.232Z,12.07
2023-04-25T02:44:17.062Z,12.07
2023-04-25T02:46:44.028Z,12.03
2023-04-25T02:49:10.971Z,11.89
2023-04-25T02:51:37.872Z,11.72
2023-04-25T02:54:04.834Z,11.72
2023-04-25T02:56:31.708Z,11.79
2023-04-25T02:58:58.505Z,11.91
2023-04-25T03:01:25.515Z,11.95
2023-04-25T03:03:52.705Z,11.91
2023-04-25T03:06:19.713Z,11.84
2023-04-25T03:08:46.549Z,11.68
2023-04-25T03:11:13.387Z,11.84
2023-04-25T03:13:40.160Z,11.93
2023-04-25T03:16:07.172Z,11.90
2023-04-25T03:18:34.080Z,11.68
2023-04-25T03:21:00.981Z,11.78
2023-04-25T03:23:27.856Z,11.76
2023-04-25T03:25:54.824Z,11.84
2023-04-25T03:28:21.670Z,11.57
2023-04-25T03:30:48.562Z,11.65
2023-04-25T03:33:15.371Z,11.72
2023-04-25T03:35:43.728Z,11.67
2023-04-25T03:38:10.707Z,11.68
2023-04-25T03:40:37.513Z,11.72
2023-04-25T03:43:04.411Z,11.66
2023-04-25T03:45:31.935Z,11.57
2023-04-25T03:47:58.831Z,11.54
2023-04-25T03:50:25.812Z,11.55
2023-04-25T03:52:52.689Z,11.59
2023-04-25T03:55:19.662Z,11.62
2023-04-25T03:57:46.543Z,11.59
2023-04-25T04:00:14.281Z,11.55
2023-04-25T04:02:43.214Z,11.53
2023-04-25T04:05:12.388Z,11.42
2023-04-25T04:07:41.286Z,11.54
2023-04-25T04:10:09.128Z,11.60
2023-04-25T04:12:35.936Z,11.57
2023-04-25T04:15:04.914Z,11.68
2023-04-25T04:17:31.969Z,11.56
2023-04-25T04:19:59.045Z,11.57
2023-04-25T04:22:26.016Z,11.56
2023-04-25T04:24:53.063Z,11.52
2023-04-25T04:27:20.601Z,11.59
2023-04-25T04:29:47.571Z,11.60
2023-04-25T04:32:15.731Z,11.64
2023-04-25T04:34:42.535Z,11.60
2023-04-25T04:37:09.511Z,11.57
2023-04-25T04:39:36.577Z,11.49
2023-04-25T04:42:04.343Z,11.45
2023-04-25T04:44:33.834Z,11.47
2023-04-25T04:47:01.165Z,11.47
2023-04-25T04:49:28.177Z,11.40
2023-04-25T04:51:56.811Z,11.61
2023-04-25T04:54:26.047Z,11.68
2023-04-25T04:56:53.712Z,11.71
2023-04-25T04:59:20.813Z,11.67
2023-04-25T05:01:48.002Z,11.63
2023-04-25T05:04:15.041Z,11.64
2023-04-25T05:06:41.939Z,11.74
2023-04-25T05:09:08.721Z,11.70
2023-04-25T05:11:35.660Z,11.55
2023-04-25T05:14:02.530Z,11.37
2023-04-25T05:16:29.339Z,11.30
2023-04-25T05:18:56.292Z,11.25
2023-04-25T05:21:23.597Z,11.28
2023-04-25T05:23:50.838Z,11.11
2023-04-25T05:26:17.837Z,11.04
2023-04-25T05:28:44.713Z,11.10
2023-04-25T05:31:11.941Z,11.20
2023-04-25T05:33:39.085Z,11.16
2023-04-25T05:36:06.386Z,11.24
2023-04-25T05:38:34.783Z,11.35
2023-04-25T05:41:02.179Z,11.27
2023-04-25T05:43:29.058Z,11.29
2023-04-25T05:45:55.923Z,11.32
2023-04-25T05:48:22.859Z,11.28
2023-04-25T05:50:49.735Z,11.30
2023-04-25T05:53:16.623Z,11.39
2023-04-25T05:55:43.540Z,11.43
2023-04-25T05:58:11.302Z,11.38
2023-04-25T06:00:38.695Z,11.31
2023-04-25T06:03:05.773Z,11.35
2023-04-25T06:05:32.775Z,11.51
2023-04-25T06:07:59.712Z,11.62
2023-04-25T06:10:27.104Z,11.65
2023-04-25T06:12:53.887Z,11.59
2023-04-25T06:17:50.566Z,11.54
2023-04-25T06:20:17.727Z,11.59
2023-04-25T06:22:44.741Z,11.64
2023-04-25T06:25:11.546Z,11.51
2023-04-25T06:27:38.342Z,11.47
2023-04-25T06:30:05.751Z,11.55
2023-04-25T06:32:32.674Z,11.53
2023-04-25T06:34:59.746Z,11.53
2023-04-25T06:37:29.427Z,11.73
2023-04-25T06:39:56.393Z,11.68
2023-04-25T06:42:23.244Z,11.62
2023-04-25T06:44:50.053Z,11.58
2023-04-25T06:47:16.868Z,11.63
2023-04-25T06:49:43.743Z,11.63
2023-04-25T06:52:11.865Z,11.62
2023-04-25T06:54:38.740Z,11.60
2023-04-25T06:57:05.738Z,11.68
2023-04-25T06:59:33.916Z,11.77
2023-04-25T07:02:00.818Z,11.70
2023-04-25T07:04:27.992Z,11.56
2023-04-25T07:06:56.065Z,11.60
2023-04-25T07:09:23.218Z,11.65
2023-04-25T07:11:50.162Z,11.72
2023-04-25T07:14:17.070Z,11.60
2023-04-25T07:16:44.004Z,11.55
2023-04-25T07:19:10.838Z,11.53
2023-04-25T07:21:37.654Z,11.71
2023-04-25T07:24:04.790Z,11.71
2023-04-25T07:26:31.598Z,11.79
2023-04-25T07:28:58.399Z,11.83
2023-04-25T07:31:25.734Z,11.85
2023-04-25T07:33:52.563Z,11.92
2023-04-25T07:36:19.466Z,11.95
2023-04-25T07:38:46.357Z,12.06
2023-04-25T07:41:13.195Z,12.02
2023-04-25T07:43:40.085Z,12.13
2023-04-25T07:46:07.544Z,12.17
2023-04-25T07:48:34.393Z,12.14
2023-04-25T07:51:01.291Z,12.33
2023-04-25T07:53:28.144Z,12.41
2023-04-25T07:55:54.950Z,12.52
2023-04-25T07:58:23.179Z,12.66
2023-04-25T08:00:51.207Z,12.70
2023-04-25T08:03:18.384Z,12.73
2023-04-25T08:05:45.635Z,12.87
2023-04-25T08:08:12.755Z,12.97
2023-04-25T08:10:39.799Z,13.02
2023-04-25T08:13:06.590Z,13.08
2023-04-25T08:15:33.451Z,13.17
2023-04-25T08:18:00.777Z,13.24
2023-04-25T08:20:27.636Z,13.30
2023-04-25T08:22:54.501Z,13.41
2023-04-25T08:25:21.573Z,13.39
2023-04-25T08:27:48.352Z,13.43
2023-04-25T08:30:15.450Z,13.46
2023-04-25T08:32:42.390Z,13.47
2023-04-25T08:35:09.560Z,13.51
2023-04-25T08:37:37.496Z,13.58
2023-04-25T08:40:08.295Z,13.63
2023-04-25T08:42:38.213Z,13.61
2023-04-25T08:45:07.090Z,13.67
2023-04-25T08:47:35.774Z,13.72
2023-04-25T08:50:04.478Z,13.70
2023-04-25T08:52:38.953Z,13.71
2023-04-25T08:55:09.762Z,13.70
2023-04-25T08:57:36.869Z,13.77
2023-04-25T09:00:04.856Z,13.65
2023-04-25T09:02:32.165Z,13.61
2023-04-25T09:04:59.321Z,13.64
2023-04-25T09:07:26.911Z,13.64
2023-04-25T09:09:53.785Z,13.67
2023-04-25T09:12:21.582Z,13.73
2023-04-25T09:15:05.266Z,13.80
2023-04-25T09:17:32.414Z,13.93
2023-04-25T09:20:13.253Z,13.90
2023-04-25T09:22:40.424Z,13.94
2023-04-25T09:25:15.757Z,14.00
2023-04-25T09:27:53.500Z,14.00
2023-04-25T09:30:30.806Z,14.03
2023-04-25T09:32:59.587Z,14.06
2023-04-25T09:35:27.562Z,14.07
2023-04-25T09:37:54.739Z,14.07
2023-04-25T09:40:21.662Z,14.07
2023-04-25T09:42:48.537Z,14.09
2023-04-25T09:45:16.281Z,14.07
2023-04-25T09:47:45.194Z,14.07
2023-04-25T09:50:17.038Z,14.10
2023-04-25T09:52:44.583Z,14.12
2023-04-25T09:55:11.541Z,14.14
2023-04-25T09:57:41.625Z,14.14
2023-04-25T10:00:13.340Z,14.18
2023-04-25T10:02:47.135Z,14.14
2023-04-25T10:05:14.126Z,14.20
2023-04-25T10:07:41.651Z,14.20
2023-04-25T10:10:09.024Z,14.20
2023-04-25T10:12:35.887Z,14.25
2023-04-25T10:15:05.318Z,14.30
2023-04-25T10:17:32.906Z,14.33
2023-04-25T10:20:01.347Z,14.36
2023-04-25T10:22:34.482Z,14.39
2023-04-25T10:25:02.108Z,14.46
2023-04-25T10:27:29.605Z,14.49
2023-04-25T10:30:11.264Z,14.50
2023-04-25T10:32:38.570Z,14.47
2023-04-25T10:35:28.247Z,14.45
2023-04-25T10:38:08.269Z,14.45
2023-04-25T10:40:35.293Z,14.41
2023-04-25T10:43:33.065Z,14.40
2023-04-25T10:46:04.475Z,14.39
2023-04-25T10:48:32.185Z,14.38
2023-04-25T10:51:12.233Z,14.40
2023-04-25T10:53:39.316Z,14.40
2023-04-25T10:56:20.292Z,14.39
2023-04-25T10:58:48.241Z,14.41
2023-04-25T11:01:20.789Z,14.44
2023-04-25T11:03:51.895Z,14.45
2023-04-25T11:06:24.111Z,14.48
2023-04-25T11:08:52.762Z,14.49
2023-04-25T11:11:22.799Z,14.47
2023-04-25T11:13:51.162Z,14.45
2023-04-25T11:18:50.531Z,14.45
2023-04-25T11:21:17.776Z,14.39
2023-04-25T11:23:47.509Z,14.39
2023-04-25T11:26:15.365Z,14.36
2023-04-25T11:28:46.426Z,14.37
2023-04-25T11:31:13.264Z,14.39
2023-04-25T11:33:41.952Z,14.40
2023-04-25T11:36:08.961Z,14.43
2023-04-25T11:38:36.228Z,14.46
2023-04-25T11:41:03.745Z,14.50
2023-04-25T11:43:30.964Z,14.52
2023-04-25T11:45:57.966Z,14.54
2023-04-25T11:48:26.022Z,14.56
2023-04-25T11:50:55.204Z,14.57
2023-04-25T11:53:22.203Z,14.58
2023-04-25T11:55:49.045Z,14.57
2023-04-25T11:58:16.637Z,14.58
2023-04-25T12:00:50.500Z,14.61
2023-04-25T12:03:19.517Z,14.58
2023-04-25T12:05:47.620Z,14.56
2023-04-25T12:08:15.923Z,14.52
2023-04-25T12:10:44.510Z,14.52
2023-04-25T12:13:25.627Z,14.52
2023-04-25T12:15:53.045Z,14.50
2023-04-25T12:18:25.520Z,14.48
2023-04-25T12:20:54.200Z,14.48
2023-04-25T12:23:29.167Z,14.46
2023-04-25T12:25:57.046Z,14.45
2023-04-25T12:28:26.059Z,14.46
2023-04-25T12:31:06.231Z,14.42
2023-04-25T12:33:37.951Z,14.40
2023-04-25T12:36:09.995Z,14.41
2023-04-25T12:38:41.368Z,14.45
2023-04-25T12:41:09.314Z,14.40
2023-04-25T12:43:36.232Z,14.36
2023-04-25T12:46:03.175Z,14.30
2023-04-25T12:48:29.982Z,14.27
2023-04-25T12:50:56.836Z,14.31
2023-04-25T12:53:25.534Z,14.28
2023-04-25T12:55:52.501Z,14.26
2023-04-25T12:58:20.355Z,14.23
2023-04-25T13:00:47.964Z,14.23
2023-04-25T13:03:14.991Z,14.29
2023-04-25T13:05:42.332Z,14.31
2023-04-25T13:08:09.248Z,14.26
2023-04-25T13:10:37.256Z,14.13
2023-04-25T13:13:04.254Z,14.08
2023-04-25T13:15:31.326Z,14.16
2023-04-25T13:17:58.234Z,14.16
2023-04-25T13:20:25.163Z,14.12
2023-04-25T13:22:51.925Z,14.18
2023-04-25T13:25:18.876Z,14.18
2023-04-25T13:27:45.936Z,14.14
2023-04-25T13:30:13.635Z,14.16
2023-04-25T13:32:41.525Z,14.23
2023-04-25T13:35:13.280Z,14.18
2023-04-25T13:37:40.808Z,14.02
2023-04-25T13:40:11.145Z,14.03
2023-04-25T13:42:38.864Z,14.06
2023-04-25T13:45:06.702Z,13.98
2023-04-25T13:47:33.602Z,13.90
2023-04-25T13:50:01.299Z,13.93
2023-04-25T13:52:28.505Z,13.95
2023-04-25T13:54:55.525Z,13.93
2023-04-25T13:57:22.350Z,13.95
2023-04-25T13:59:49.120Z,13.93
2023-04-25T14:02:16.033Z,13.86
2023-04-25T14:04:43.213Z,13.84
2023-04-25T14:07:10.234Z,13.78
2023-04-25T14:09:37.127Z,13.77
2023-04-25T14:12:04.286Z,13.76
2023-04-25T14:14:31.096Z,13.82
2023-04-25T14:16:58.515Z,13.81
2023-04-25T14:19:25.825Z,13.88
2023-04-25T14:21:52.596Z,13.94
2023-04-25T14:24:19.503Z,13.91
2023-04-25T14:26:46.652Z,13.92
2023-04-25T14:29:13.885Z,14.00
2023-04-25T14:31:41.560Z,13.95
2023-04-25T14:34:09.009Z,13.93
2023-04-25T14:36:37.089Z,13.86
2023-04-25T14:39:06.302Z,13.88
2023-04-25T14:41:33.436Z,13.82
2023-04-25T14:44:00.348Z,13.87
2023-04-25T14:46:27.886Z,13.90
2023-04-25T14:48:57.002Z,13.90
2023-04-25T14:51:24.215Z,13.87
2023-04-25T14:53:52.260Z,13.90
2023-04-25T14:56:19.995Z,13.85
2023-04-25T14:58:47.368Z,13.85
2023-04-25T15:01:15.736Z,13.79
2023-04-25T15:03:43.135Z,13.80
2023-04-25T15:06:10.399Z,13.83
2023-04-25T15:08:37.295Z,13.87
2023-04-25T15:11:04.314Z,13.87
2023-04-25T15:13:31.338Z,13.82
2023-04-25T15:15:58.131Z,13.80
2023-04-25T15:18:25.155Z,13.81
2023-04-25T15:20:54.109Z,13.81
2023-04-25T15:23:22.570Z,13.79
2023-04-25T15:25:51.719Z,13.80
2023-04-25T15:28:18.553Z,13.81
2023-04-25T15:30:46.140Z,13.85
2023-04-25T15:33:13.056Z,13.80
2023-04-25T15:35:40.128Z,13.81
2023-04-25T15:38:07.069Z,13.81
2023-04-25T15:40:34.009Z,13.87
2023-04-25T15:43:00.955Z,13.93
2023-04-25T15:45:28.123Z,13.88
2023-04-25T15:47:57.237Z,13.92
2023-04-25T15:50:25.012Z,13.96
2023-04-25T15:52:52.561Z,13.98
2023-04-25T15:55:21.832Z,13.95
2023-04-25T15:57:51.258Z,14.05
2023-04-25T16:00:19.660Z,13.98
2023-04-25T16:02:48.402Z,13.88
2023-04-25T16:05:15.821Z,13.84
2023-04-25T16:07:44.132Z,13.84
2023-04-25T16:10:11.895Z,13.82
2023-04-25T16:12:41.442Z,13.75
2023-04-25T16:15:08.955Z,13.75
2023-04-25T16:17:36.015Z,13.75
2023-04-25T16:20:09.915Z,13.77
2023-04-25T16:22:38.632Z,13.74
2023-04-25T16:25:06.357Z,13.71
2023-04-25T16:27:34.901Z,13.71
2023-04-25T16:30:02.767Z,13.75
2023-04-25T16:32:29.628Z,13.71
2023-04-25T16:34:58.677Z,13.70
2023-04-25T16:37:26.005Z,13.69
2023-04-25T16:39:52.879Z,13.66
2023-04-25T16:42:19.688Z,13.66
2023-04-25T16:44:46.632Z,13.67
2023-04-25T16:47:17.308Z,13.61
2023-04-25T16:49:45.931Z,13.62
2023-04-25T16:52:12.995Z,13.68
2023-04-25T16:54:39.814Z,13.64
2023-04-25T16:57:10.722Z,13.61
2023-04-25T16:59:38.705Z,13.67
2023-04-25T17:02:05.809Z,13.70
2023-04-25T17:04:33.366Z,13.63
2023-04-25T17:07:00.336Z,13.62
2023-04-25T17:09:28.793Z,13.59
2023-04-25T17:11:56.510Z,13.57
2023-04-25T17:14:23.449Z,13.55
2023-04-25T17:16:50.417Z,13.54
2023-04-25T17:19:17.263Z,13.54
2023-04-25T17:21:44.507Z,13.56
2023-04-25T17:24:12.302Z,13.63
2023-04-25T17:26:39.473Z,13.57
2023-04-25T17:29:06.360Z,13.62
2023-04-25T17:31:33.264Z,13.57
2023-04-25T17:34:00.266Z,13.56
2023-04-25T17:36:27.144Z,13.67
2023-04-25T17:38:54.115Z,13.73
2023-04-25T17:41:21.120Z,13.71
2023-04-25T17:43:49.063Z,13.73
2023-04-25T17:46:16.092Z,13.61
2023-04-25T17:48:43.044Z,13.58
2023-04-25T17:51:09.900Z,13.54
2023-04-25T17:53:36.846Z,13.47
2023-04-25T17:56:05.377Z,13.47
2023-04-25T17:58:33.888Z,13.38
2023-04-25T18:01:00.690Z,13.37
2023-04-25T18:03:27.860Z,13.37
2023-04-25T18:05:54.949Z,13.38
2023-04-25T18:08:22.782Z,13.42
2023-04-25T18:10:49.744Z,13.32
2023-04-25T18:13:17.534Z,13.37
2023-04-25T18:15:44.792Z,13.31
2023-04-25T18:18:19.986Z,13.40
2023-04-25T18:20:47.542Z,13.36
2023-04-25T18:23:14.418Z,13.37
2023-04-25T18:25:41.983Z,13.41
2023-04-25T18:28:09.238Z,13.32
2023-04-25T18:30:36.382Z,13.36
2023-04-25T18:33:03.634Z,13.42
2023-04-25T18:35:30.627Z,13.46
2023-04-25T18:37:57.939Z,13.48
2023-04-25T18:40:25.162Z,13.37
2023-04-25T18:42:52.022Z,13.37
2023-04-25T18:45:18.829Z,13.39
2023-04-25T18:47:47.123Z,13.33
2023-04-25T18:50:14.287Z,13.28
2023-04-25T18:52:42.032Z,13.23
2023-04-25T18:55:09.524Z,13.19
2023-04-25T18:57:36.510Z,13.22
2023-04-25T19:00:06.188Z,13.23
2023-04-25T19:02:35.039Z,13.29
2023-04-25T19:05:01.992Z,13.24
2023-04-25T19:07:31.295Z,13.27
2023-04-25T19:09:58.188Z,13.26
2023-04-25T19:12:25.098Z,13.20
2023-04-25T19:14:51.985Z,13.23
2023-04-25T19:17:18.851Z,13.23
2023-04-25T19:19:45.854Z,13.21
2023-04-25T19:22:12.656Z,13.19
2023-04-25T19:24:39.965Z,13.20
2023-04-25T19:27:06.938Z,13.22
2023-04-25T19:29:34.296Z,13.22
2023-04-25T19:32:03.266Z,13.25
2023-04-25T19:34:30.273Z,13.19
2023-04-25T19:36:57.901Z,13.22
2023-04-25T19:39:24.981Z,13.21
2023-04-25T19:41:52.081Z,13.21
2023-04-25T19:44:19.192Z,13.24
2023-04-25T19:46:46.881Z,13.25
2023-04-25T19:49:14.104Z,13.26
2023-04-25T19:51:41.044Z,13.27
2023-04-25T19:54:08.039Z,13.23
2023-04-25T19:56:35.294Z,13.31
2023-04-25T19:59:02.380Z,13.37
2023-04-25T20:01:29.698Z,13.28
2023-04-25T20:03:56.905Z,13.32
2023-04-25T20:06:24.308Z,13.41
2023-04-25T20:08:53.852Z,13.52
2023-04-25T20:11:21.985Z,13.52
2023-04-25T20:13:48.968Z,13.52
2023-04-25T20:16:20.599Z,13.31
2023-04-25T20:18:48.697Z,13.24
2023-04-25T20:21:17.969Z,13.33
2023-04-25T20:23:45.023Z,13.40
2023-04-25T20:26:15.064Z,13.41
2023-04-25T20:28:42.140Z,13.33
2023-04-25T20:31:10.906Z,13.40
2023-04-25T20:33:38.955Z,13.28
2023-04-25T20:36:05.860Z,13.15
2023-04-25T20:38:32.983Z,13.15
2023-04-25T20:41:00.597Z,13.17
2023-04-25T20:43:27.615Z,13.30
2023-04-25T20:45:55.093Z,13.18
2023-04-25T20:48:22.366Z,13.28
2023-04-25T20:50:49.268Z,13.29
2023-04-25T20:53:16.825Z,13.30
2023-04-25T20:55:44.628Z,13.34
2023-04-25T20:58:14.131Z,13.31
2023-04-25T21:00:41.373Z,13.19
2023-04-25T21:03:09.345Z,13.07
2023-04-25T21:05:36.697Z,13.17
2023-04-25T21:08:04.440Z,13.12
2023-04-25T21:10:32.061Z,13.01
2023-04-25T21:12:59.573Z,12.97
2023-04-25T21:15:27.759Z,13.18
2023-04-25T21:17:55.286Z,13.13
2023-04-25T21:20:22.261Z,13.13
2023-04-25T21:22:53.434Z,13.06
2023-04-25T21:28:23.727Z,12.98
2023-04-25T21:30:51.005Z,13.01
2023-04-25T21:33:19.452Z,13.04
2023-04-25T21:35:46.665Z,13.10
2023-04-25T21:38:14.972Z,13.01
2023-04-25T21:40:42.127Z,13.08
2023-04-25T21:43:09.276Z,13.00
2023-04-25T21:45:47.153Z,12.97
2023-04-25T21:48:18.540Z,13.03
2023-04-25T21:50:45.865Z,12.99
2023-04-25T21:53:12.687Z,12.94
2023-04-25T21:55:39.512Z,13.08
2023-04-25T21:58:06.497Z,13.05
2023-04-25T22:00:34.698Z,13.02
2023-04-25T22:03:01.651Z,12.99
2023-04-25T22:05:29.574Z,12.86
2023-04-25T22:07:59.449Z,12.92
2023-04-25T22:10:26.383Z,12.85
2023-04-25T22:12:53.275Z,12.93
2023-04-25T22:15:23.930Z,12.95
2023-04-25T22:17:52.602Z,12.99
2023-04-25T22:20:23.004Z,12.92
2023-04-25T22:22:51.092Z,12.95
2023-04-25T22:25:18.016Z,13.02
2023-04-25T22:27:45.055Z,12.87
2023-04-25T22:30:15.477Z,12.86
2023-04-25T22:32:42.522Z,12.98
2023-04-25T22:35:10.712Z,12.94
2023-04-25T22:37:37.853Z,13.06
2023-04-25T22:40:11.589Z,12.88
2023-04-25T22:42:42.425Z,12.83
2023-04-25T22:45:10.107Z,12.76
2023-04-25T22:47:37.998Z,12.87
2023-04-25T22:50:12.724Z,12.78
2023-04-25T22:52:39.848Z,12.93
2023-04-25T22:55:07.275Z,12.74
2023-04-25T22:57:34.072Z,12.79
2023-04-25T23:00:01.868Z,12.79
2023-04-25T23:02:28.734Z,12.85
2023-04-25T23:04:55.699Z,12.83
2023-04-25T23:07:22.579Z,12.82
2023-04-25T23:09:49.500Z,12.79
2023-04-25T23:12:19.430Z,12.79
2023-04-25T23:14:52.861Z,12.71
2023-04-25T23:17:20.756Z,12.62
2023-04-25T23:19:48.456Z,12.67
2023-04-25T23:22:15.314Z,12.72
2023-04-25T23:24:42.325Z,12.70
2023-04-25T23:27:09.122Z,12.75
2023-04-25T23:29:36.245Z,12.73
2023-04-25T23:32:03.345Z,12.80
2023-04-25T23:34:31.776Z,12.79
2023-04-25T23:37:01.893Z,12.83
2023-04-25T23:39:28.832Z,12.81
2023-04-25T23:41:56.025Z,12.81
2023-04-25T23:44:22.944Z,12.86
2023-04-25T23:46:50.152Z,12.81
2023-04-25T23:49:17.026Z,12.79
2023-04-25T23:51:43.874Z,12.80
2023-04-25T23:54:10.741Z,12.79
2023-04-25T23:56:38.018Z,12.80
2023-04-25T23:59:05.033Z,12.83
